Time;durP1;ratioP1;P1;durP2;ratioP2;P2;SDS_P1;SDS_P2;PMS_P1;PMS_P2;Temp;Humidity;BMP_temperature;BMP_pressure;BME280_temperature;BME280_humidity;BME280_pressure;Samples;Min_cycle;Max_cycle;Signal;HPM_P1;HPM_P2
2021/06/27 00:00:38;;;;;;;1.87;1.70;;;;;;;17.00;71.89;101109.22;5091113;28;20205;-73
2021/06/27 00:03:07;;;;;;;2.40;2.00;;;;;;;16.98;71.21;101107.66;5088239;28;20227;-73
2021/06/27 00:05:37;;;;;;;1.80;1.70;;;;;;;16.95;71.49;101116.94;5090448;28;20207;-73
2021/06/27 00:08:11;;;;;;;5.33;2.13;;;;;;;16.88;72.04;101112.19;5089990;28;20185;-73
2021/06/27 00:10:42;;;;;;;2.77;1.90;;;;;;;16.80;72.73;101111.97;5091132;28;20207;-73
2021/06/27 00:13:11;;;;;;;3.63;1.93;;;;;;;16.77;72.67;101116.69;5089554;28;20382;-73
2021/06/27 00:15:42;;;;;;;1.50;1.40;;;;;;;16.72;72.53;101104.53;5090105;28;20280;-74
2021/06/27 00:18:12;;;;;;;1.90;1.80;;;;;;;16.75;72.43;101110.53;5088745;28;20228;-74
2021/06/27 00:20:43;;;;;;;2.10;1.90;;;;;;;16.76;72.09;101114.09;5088253;28;20196;-73
2021/06/27 00:23:14;;;;;;;1.70;1.60;;;;;;;16.71;71.57;101111.78;5090554;28;20220;-73
2021/06/27 00:25:43;;;;;;;2.00;1.80;;;;;;;16.73;71.56;101115.22;5089789;28;20818;-73
2021/06/27 00:28:11;;;;;;;2.47;1.73;;;;;;;16.73;71.92;101111.66;5089193;28;20257;-73
2021/06/27 00:30:40;;;;;;;2.07;1.80;;;;;;;16.73;71.12;101117.09;5089191;28;20193;-74
2021/06/27 00:33:09;;;;;;;3.67;1.90;;;;;;;16.70;71.29;101122.78;5089497;28;20207;-73
2021/06/27 00:35:38;;;;;;;3.03;1.90;;;;;;;16.25;71.79;101049.84;5088554;28;20262;-74
2021/06/27 00:38:07;;;;;;;2.00;1.80;;;;;;;16.63;71.84;101118.88;5089309;28;20529;-74
2021/06/27 00:40:36;;;;;;;2.43;1.87;;;;;;;16.60;72.06;101119.13;5084867;28;20204;-74
2021/06/27 00:43:07;;;;;;;1.83;1.63;;;;;;;16.58;71.77;101113.84;5089749;28;20215;-74
2021/06/27 00:45:36;;;;;;;6.03;1.90;;;;;;;16.55;72.38;101116.81;5088647;28;20605;-74
2021/06/27 00:48:05;;;;;;;1.73;1.60;;;;;;;16.50;72.54;101104.63;5088417;28;20196;-73
2021/06/27 00:50:36;;;;;;;2.87;1.90;;;;;;;16.51;72.58;101114.47;5089279;28;20207;-73
2021/06/27 00:53:06;;;;;;;2.57;1.93;;;;;;;16.17;72.47;101060.47;5086657;28;20256;-73
2021/06/27 00:55:36;;;;;;;5.83;1.90;;;;;;;16.48;72.42;101118.31;5088924;28;20767;-73
2021/06/27 00:58:05;;;;;;;5.27;2.10;;;;;;;16.40;72.17;101102.72;5088389;28;20201;-73
2021/06/27 01:00:37;;;;;;;3.37;1.80;;;;;;;16.45;72.51;101110.47;5079604;28;20198;-73
2021/06/27 01:03:07;;;;;;;6.77;1.60;;;;;;;16.42;72.41;101110.72;5085072;28;20238;-74
2021/06/27 01:05:38;;;;;;;8.40;2.27;;;;;;;16.40;72.46;101105.44;5079852;28;20547;-73
2021/06/27 01:08:07;;;;;;;2.20;1.80;;;;;;;16.07;72.03;101054.16;5086967;28;20594;-73
2021/06/27 01:10:37;;;;;;;2.40;1.80;;;;;;;16.45;71.67;101107.75;5080822;28;20216;-74
2021/06/27 01:13:07;;;;;;;4.07;1.97;;;;;;;16.45;71.87;101114.03;5098644;28;20220;-73
2021/06/27 01:15:35;;;;;;;6.30;1.80;;;;;;;16.45;71.82;101114.03;5088982;28;20196;-74
2021/06/27 01:18:04;;;;;;;2.20;2.00;;;;;;;16.45;71.87;101107.75;5088823;28;20267;-73
2021/06/27 01:20:34;;;;;;;2.30;2.00;;;;;;;16.31;71.15;101083.69;5087478;28;20197;-73
2021/06/27 01:23:09;;;;;;;8.37;2.10;;;;;;;16.49;71.48;101108.34;5087282;28;20205;-74
2021/06/27 01:25:41;;;;;;;5.63;2.00;;;;;;;16.47;71.93;101116.59;5088598;28;20543;-74
2021/06/27 01:28:11;;;;;;;2.30;2.03;;;;;;;16.43;72.24;101116.00;5089444;28;20208;-73
2021/06/27 01:30:41;;;;;;;4.13;2.20;;;;;;;16.38;72.23;101114.69;5088308;28;20196;-73
2021/06/27 01:33:12;;;;;;;3.47;2.10;;;;;;;16.36;72.65;101111.25;5087692;28;20200;-73
2021/06/27 01:35:40;;;;;;;7.80;2.77;;;;;;;16.36;71.70;101113.97;5089166;28;20192;-73
2021/06/27 01:38:12;;;;;;;6.83;2.87;;;;;;;16.34;71.57;101107.81;5088131;28;20652;-73
2021/06/27 01:40:41;;;;;;;10.77;3.80;;;;;;;16.31;71.44;101097.25;5087971;28;20695;-73
2021/06/27 01:43:15;;;;;;;11.93;3.73;;;;;;;16.35;71.85;101117.69;5089093;28;20231;-73
2021/06/27 01:45:48;;;;;;;15.70;3.83;;;;;;;16.36;72.29;101117.53;5087250;28;20195;-73
2021/06/27 01:48:17;;;;;;;10.90;4.00;;;;;;;16.34;72.55;101113.25;5077137;28;20204;-73
2021/06/27 01:50:46;;;;;;;6.33;3.47;;;;;;;16.02;72.35;101065.38;5088446;28;20232;-73
2021/06/27 01:53:18;;;;;;;14.00;3.63;;;;;;;16.23;73.70;101116.88;5087313;28;20204;-73
2021/06/27 01:55:47;;;;;;;10.23;3.43;;;;;;;16.12;72.90;101096.09;5082330;28;20256;-73
2021/06/27 01:58:16;;;;;;;5.53;3.30;;;;;;;16.25;72.79;101112.19;5086825;28;20203;-73
2021/06/27 02:00:44;;;;;;;7.80;3.27;;;;;;;16.17;73.31;101111.09;5087882;28;20611;-73
2021/06/27 02:03:17;;;;;;;7.67;3.33;;;;;;;16.15;72.93;101111.25;5077896;28;20601;-73
2021/06/27 02:05:46;;;;;;;6.97;3.20;;;;;;;16.19;72.66;101111.84;5087998;28;20201;-73
2021/06/27 02:08:15;;;;;;;6.73;3.50;;;;;;;16.22;72.36;101117.84;5088608;28;20655;-73
2021/06/27 02:10:44;;;;;;;5.80;3.20;;;;;;;16.12;72.45;101098.81;5079189;28;20210;-73
2021/06/27 02:13:12;;;;;;;6.13;3.30;;;;;;;16.27;72.10;101110.22;5087683;28;20199;-72
2021/06/27 02:15:40;;;;;;;6.17;3.43;;;;;;;16.29;72.23;101099.25;5085999;28;20203;-73
2021/06/27 02:18:28;;;;;;;4.47;3.00;;;;;;;16.34;71.82;101095.13;5086991;28;20767;-73
2021/06/27 02:20:59;;;;;;;7.57;3.27;;;;;;;16.35;71.93;101091.44;5078556;28;20196;-73
2021/06/27 02:23:29;;;;;;;5.63;2.60;;;;;;;16.36;71.62;101093.16;5078384;28;20203;-73
2021/06/27 02:25:57;;;;;;;3.70;2.50;;;;;;;16.37;72.33;101084.03;5087018;28;20215;-73
2021/06/27 02:28:25;;;;;;;4.10;3.00;;;;;;;16.37;72.66;101084.03;5085453;28;20212;-73
2021/06/27 02:30:54;;;;;;;5.03;3.03;;;;;;;16.15;72.87;101030.81;5076619;28;20204;-73
2021/06/27 02:33:23;;;;;;;6.60;2.80;;;;;;;16.52;73.21;101081.81;5087652;28;20192;-73
2021/06/27 02:35:51;;;;;;;5.27;2.80;;;;;;;16.68;73.35;101067.81;5087354;28;20258;-73
2021/06/27 02:38:19;;;;;;;3.40;2.53;;;;;;;17.15;74.13;101071.72;5088255;28;20228;-73
2021/06/27 02:40:49;;;;;;;6.57;2.47;;;;;;;17.80;73.92;101092.03;5086788;28;20200;-73
2021/06/27 02:43:18;;;;;;;8.73;2.60;;;;;;;18.43;73.74;101083.41;5087191;28;20659;-74
2021/06/27 02:45:47;;;;;;;3.50;2.47;;;;;;;19.11;72.38;101084.91;5086913;28;20184;-74
2021/06/27 02:48:16;;;;;;;2.83;2.40;;;;;;;19.65;70.67;101066.00;5086690;28;20192;-74
2021/06/27 02:50:44;;;;;;;6.03;2.50;;;;;;;20.33;70.01;101074.44;5088153;28;20224;-74
2021/06/27 02:53:13;;;;;;;2.80;2.27;;;;;;;21.11;68.91;101079.84;5077663;28;20197;-74
2021/06/27 02:55:42;;;;;;;2.83;2.40;;;;;;;21.84;65.21;101085.59;5086415;28;20227;-73
2021/06/27 02:58:11;;;;;;;7.37;2.50;;;;;;;22.32;62.63;101076.56;5073512;28;20597;-74
2021/06/27 03:00:40;;;;;;;3.50;2.50;;;;;;;22.91;61.95;101091.72;5083088;28;20200;-74
2021/06/27 03:03:08;;;;;;;3.97;2.40;;;;;;;23.28;60.99;101090.25;5084968;28;20197;-73
2021/06/27 03:05:36;;;;;;;3.33;2.47;;;;;;;23.50;59.98;101088.56;5087906;28;20201;-73
2021/06/27 03:08:04;;;;;;;2.70;2.30;;;;;;;23.48;59.55;101087.91;5086246;28;20695;-74
2021/06/27 03:10:32;;;;;;;2.50;2.30;;;;;;;23.29;59.46;101072.75;5079968;28;20575;-74
2021/06/27 03:13:01;;;;;;;6.40;2.50;;;;;;;23.00;59.23;101078.88;5086439;28;20192;-74
2021/06/27 03:15:30;;;;;;;3.33;2.60;;;;;;;22.91;60.00;101074.44;5086254;28;20232;-74
2021/06/27 03:17:59;;;;;;;2.60;2.40;;;;;;;22.90;59.57;101072.72;5086268;28;20366;-74
2021/06/27 03:20:27;;;;;;;3.07;2.60;;;;;;;22.83;59.86;101071.72;5086103;28;20203;-74
2021/06/27 03:22:55;;;;;;;8.07;2.60;;;;;;;22.57;60.30;101069.19;5087457;28;20196;-74
2021/06/27 03:25:25;;;;;;;5.67;2.80;;;;;;;22.13;61.01;101077.78;5080798;28;20189;-74
2021/06/27 03:27:53;;;;;;;6.07;2.60;;;;;;;21.87;61.46;101069.69;5092329;28;20200;-74
2021/06/27 03:30:22;;;;;;;2.93;2.43;;;;;;;21.41;63.59;101075.75;5090496;28;20593;-74
2021/06/27 03:32:52;;;;;;;3.00;2.47;;;;;;;21.30;63.63;101060.50;5106597;28;20200;-74
2021/06/27 03:35:20;;;;;;;3.17;2.70;;;;;;;21.51;64.12;101081.94;5089850;28;20220;-74
2021/06/27 03:37:54;;;;;;;2.67;2.33;;;;;;;21.15;64.22;101060.28;5091291;28;20204;-74
2021/06/27 03:40:22;;;;;;;4.67;2.63;;;;;;;21.07;65.19;101082.06;5089812;28;20200;-75
2021/06/27 03:42:51;;;;;;;5.03;2.97;;;;;;;20.78;66.29;101083.28;5091770;28;20193;-74
2021/06/27 03:45:20;;;;;;;4.70;2.70;;;;;;;20.58;66.63;101083.69;5090018;28;20756;-74
2021/06/27 03:47:48;;;;;;;4.00;2.57;;;;;;;20.52;66.54;101076.16;5090445;28;20197;-74
2021/06/27 03:50:19;;;;;;;5.70;2.93;;;;;;;20.56;67.40;101083.00;5091431;28;20204;-74
2021/06/27 03:52:48;;;;;;;4.50;2.90;;;;;;;20.38;67.75;101061.16;5085523;28;20544;-74
2021/06/27 03:55:18;;;;;;;6.57;2.83;;;;;;;20.67;67.90;101080.84;5090079;28;20225;-74
2021/06/27 03:57:46;;;;;;;3.43;2.60;;;;;;;20.85;67.82;101088.97;5089954;28;20193;-74
2021/06/27 04:00:16;;;;;;;4.00;2.57;;;;;;;20.80;68.16;101093.19;5090284;28;20606;-74
2021/06/27 04:02:44;;;;;;;3.40;2.60;;;;;;;20.76;68.10;101093.50;5090682;28;20207;-74
2021/06/27 04:05:13;;;;;;;3.93;2.80;;;;;;;20.68;68.75;101093.47;5084010;28;20189;-74
2021/06/27 04:07:43;;;;;;;4.93;2.80;;;;;;;20.74;69.06;101090.09;5088492;28;20672;-74
2021/06/27 04:10:12;;;;;;;5.13;3.03;;;;;;;20.48;70.08;101044.72;5081293;28;20197;-74
2021/06/27 04:12:40;;;;;;;4.83;3.10;;;;;;;20.89;70.22;101090.34;5089628;28;20209;-74
2021/06/27 04:15:09;;;;;;;4.30;2.80;;;;;;;21.05;69.96;101082.22;5089265;28;20230;-74
2021/06/27 04:17:38;;;;;;;3.80;2.87;;;;;;;21.18;69.04;101083.66;5091002;28;20244;-74
2021/06/27 04:20:09;;;;;;;4.47;2.80;;;;;;;21.08;69.29;101075.59;5089200;28;20184;-74
2021/06/27 04:22:37;;;;;;;3.10;2.70;;;;;;;21.01;70.24;101075.38;5089759;28;20204;-74
2021/06/27 04:25:09;;;;;;;6.50;3.17;;;;;;;20.87;70.92;101078.75;5089122;28;20192;-74
2021/06/27 04:27:37;;;;;;;4.20;2.93;;;;;;;20.91;70.93;101065.63;5090950;28;20278;-73
2021/06/27 04:30:07;;;;;;;3.70;2.80;;;;;;;20.94;70.55;101068.03;5089054;28;20204;-73
2021/06/27 04:32:35;;;;;;;3.17;2.70;;;;;;;20.85;71.23;101074.47;5104788;28;20205;-74
2021/06/27 04:35:06;;;;;;;3.60;2.90;;;;;;;20.97;71.06;101075.88;5089198;28;20227;-73
2021/06/27 04:37:34;;;;;;;6.67;3.27;;;;;;;21.11;69.62;101066.19;5089840;28;20447;-74
2021/06/27 04:40:03;;;;;;;3.10;2.80;;;;;;;21.21;69.25;101073.25;5089164;28;20207;-73
2021/06/27 04:42:32;;;;;;;3.40;2.90;;;;;;;21.38;68.48;101066.84;5090448;28;20201;-74
2021/06/27 04:45:00;;;;;;;2.87;2.60;;;;;;;21.44;68.73;101064.50;5090296;28;20196;-75
2021/06/27 04:47:29;;;;;;;8.20;3.00;;;;;;;21.55;68.32;101066.91;5082838;28;20583;-74
2021/06/27 04:49:57;;;;;;;2.73;2.53;;;;;;;21.65;66.88;101064.88;5090123;28;20192;-74
2021/06/27 04:52:25;;;;;;;4.23;3.20;;;;;;;21.72;65.67;101056.84;5087476;28;20570;-74
2021/06/27 04:54:56;;;;;;;3.57;2.90;;;;;;;21.70;66.49;101063.34;5089483;28;20289;-74
2021/06/27 04:57:24;;;;;;;5.20;3.00;;;;;;;21.73;65.56;101051.22;5081452;28;20215;-74
2021/06/27 04:59:54;;;;;;;4.23;2.90;;;;;;;21.77;64.64;101041.66;5086733;28;20218;-74
2021/06/27 05:02:22;;;;;;;3.37;2.87;;;;;;;21.93;65.46;101047.13;5089128;28;20218;-74
2021/06/27 05:04:50;;;;;;;4.90;2.83;;;;;;;22.04;67.17;101054.19;5088716;28;20193;-74
2021/06/27 05:07:18;;;;;;;5.70;3.00;;;;;;;22.13;68.05;101053.16;5089915;28;20200;-74
2021/06/27 05:09:46;;;;;;;3.70;2.90;;;;;;;22.34;67.51;101049.88;5083519;28;20663;-74
2021/06/27 05:12:15;;;;;;;4.83;3.10;;;;;;;22.56;68.29;101062.00;5088496;28;20284;-74
2021/06/27 05:14:43;;;;;;;6.40;3.10;;;;;;;22.57;68.33;101056.34;5090111;28;20396;-74
2021/06/27 05:17:12;;;;;;;4.10;3.20;;;;;;;22.70;67.95;101055.81;5088028;28;20220;-74
2021/06/27 05:19:40;;;;;;;4.47;3.10;;;;;;;22.86;65.29;101028.41;5088908;28;20200;-74
2021/06/27 05:22:08;;;;;;;3.97;3.17;;;;;;;23.30;64.25;101062.66;5087943;28;20889;-74
2021/06/27 05:24:36;;;;;;;5.20;2.90;;;;;;;23.43;64.18;101062.91;5089362;28;20201;-74
2021/06/27 05:27:06;;;;;;;4.37;2.60;;;;;;;23.62;63.67;101054.28;5089263;28;20208;-74
2021/06/27 05:29:34;;;;;;;5.33;2.60;;;;;;;23.76;64.43;101056.22;5077613;28;20197;-75
2021/06/27 05:32:03;;;;;;;5.60;3.03;;;;;;;24.09;61.80;101054.06;5085884;28;20196;-74
2021/06/27 05:34:32;;;;;;;3.57;2.80;;;;;;;24.03;61.80;101053.97;5082542;28;20200;-75
2021/06/27 05:37:02;;;;;;;3.20;2.88;;;;;;;23.75;62.47;101018.00;5082480;28;20221;-75
2021/06/27 05:39:30;;;;;;;4.60;2.92;;;;;;;24.26;61.63;101049.31;5088410;28;20196;-75
2021/06/27 05:41:58;;;;;;;3.17;2.47;;;;;;;24.55;60.64;101062.28;5088514;28;20201;-75
2021/06/27 05:44:26;;;;;;;3.53;2.72;;;;;;;24.75;59.99;101062.56;5084796;28;20196;-75
2021/06/27 05:46:54;;;;;;;2.95;2.65;;;;;;;24.89;60.06;101053.50;5088163;28;20200;-74
2021/06/27 05:49:23;;;;;;;4.18;2.90;;;;;;;25.05;58.47;101056.06;5087640;28;20200;-74
2021/06/27 05:51:52;;;;;;;4.40;2.70;;;;;;;25.08;58.32;101046.56;5089394;28;20196;-75
2021/06/27 05:54:20;;;;;;;3.75;2.65;;;;;;;25.41;58.24;101055.28;5082068;28;20205;-75
2021/06/27 05:56:48;;;;;;;3.55;2.83;;;;;;;25.52;58.45;101052.00;5082751;28;20215;-74
2021/06/27 05:59:17;;;;;;;2.90;2.60;;;;;;;25.76;56.90;101025.22;5078610;28;20258;-75
2021/06/27 06:01:45;;;;;;;5.47;2.90;;;;;;;25.80;56.59;101048.53;5086166;28;20193;-75
2021/06/27 06:04:13;;;;;;;3.35;2.78;;;;;;;26.08;56.10;101057.72;5088548;28;20254;-75
2021/06/27 06:06:41;;;;;;;2.75;2.35;;;;;;;26.22;55.87;101051.25;5087233;28;20624;-75
2021/06/27 06:09:10;;;;;;;4.25;2.58;;;;;;;26.12;56.95;101050.75;5087221;28;20602;-75
2021/06/27 06:11:39;;;;;;;3.50;2.78;;;;;;;26.40;56.41;101049.97;5085484;28;20199;-75
2021/06/27 06:14:07;;;;;;;2.92;2.42;;;;;;;26.72;53.94;101054.84;5079093;28;20204;-75
2021/06/27 06:16:35;;;;;;;2.67;2.40;;;;;;;26.78;54.31;101054.03;5084777;28;20219;-75
2021/06/27 06:19:03;;;;;;;3.42;2.50;;;;;;;26.89;53.92;101071.91;5085293;28;20228;-75
2021/06/27 06:21:31;;;;;;;5.63;2.88;;;;;;;27.22;53.65;101063.84;5083289;28;20217;-75
2021/06/27 06:23:59;;;;;;;3.70;2.58;;;;;;;27.12;54.13;101055.97;5083764;28;20775;-75
2021/06/27 06:26:28;;;;;;;2.75;2.33;;;;;;;27.22;52.88;101055.56;5082830;28;20218;-75
2021/06/27 06:28:56;;;;;;;3.13;2.80;;;;;;;27.26;53.09;101067.91;5086800;28;20575;-75
2021/06/27 06:31:25;;;;;;;5.07;2.90;;;;;;;27.10;53.33;101068.25;5087347;28;20193;-75
2021/06/27 06:33:53;;;;;;;4.13;2.75;;;;;;;27.05;53.20;101070.78;5086750;28;20249;-75
2021/06/27 06:36:21;;;;;;;3.08;2.72;;;;;;;27.24;52.05;101058.97;5082968;28;20220;-75
2021/06/27 06:38:51;;;;;;;2.67;2.47;;;;;;;27.35;52.42;101072.19;5085395;28;20207;-75
2021/06/27 06:41:19;;;;;;;4.28;2.83;;;;;;;27.20;52.19;101043.88;5086953;28;20682;-75
2021/06/27 06:43:49;;;;;;;4.32;2.88;;;;;;;27.80;50.79;101078.09;5079764;28;20202;-75
2021/06/27 06:46:17;;;;;;;3.58;2.80;;;;;;;27.51;51.13;101074.56;5084728;28;20539;-75
2021/06/27 06:48:45;;;;;;;3.10;2.70;;;;;;;27.66;51.90;101059.81;5086894;28;20193;-75
2021/06/27 06:51:14;;;;;;;3.40;2.38;;;;;;;28.34;49.49;101080.75;5084784;28;20197;-75
2021/06/27 06:53:42;;;;;;;3.25;2.78;;;;;;;28.23;49.88;101077.75;5086326;28;20636;-75
2021/06/27 06:56:10;;;;;;;2.83;2.53;;;;;;;28.61;48.27;101072.47;5086605;28;20307;-76
2021/06/27 06:58:40;;;;;;;5.05;2.63;;;;;;;28.52;48.57;101052.50;5085059;28;20580;-75
2021/06/27 07:01:10;;;;;;;4.45;2.78;;;;;;;28.28;49.32;101064.19;5086345;28;20656;-75
2021/06/27 07:03:44;;;;;;;3.03;2.58;;;;;;;28.44;48.82;101064.59;5077278;28;20566;-76
2021/06/27 07:06:14;;;;;;;2.85;2.60;;;;;;;28.60;48.71;101066.09;5083556;28;20557;-74
2021/06/27 07:08:43;;;;;;;6.88;2.85;;;;;;;28.55;48.84;101070.56;5082288;28;20668;-74
2021/06/27 07:11:11;;;;;;;3.40;2.70;;;;;;;28.73;48.33;101067.97;5084338;28;20690;-74
2021/06/27 07:13:42;;;;;;;8.07;3.08;;;;;;;28.49;48.60;101065.91;5083503;28;20212;-74
2021/06/27 07:16:11;;;;;;;3.00;2.70;;;;;;;28.51;48.07;101064.59;5085528;28;20204;-74
2021/06/27 07:18:40;;;;;;;4.20;3.08;;;;;;;28.10;49.69;101068.38;5083512;28;20333;-74
2021/06/27 07:21:08;;;;;;;5.03;2.88;;;;;;;28.32;47.87;101071.84;5080969;28;20196;-75
2021/06/27 07:23:41;;;;;;;4.50;3.20;;;;;;;28.06;49.25;101063.50;5081525;28;20193;-75
2021/06/27 07:26:09;;;;;;;5.97;2.92;;;;;;;28.48;48.66;101067.81;5085329;28;20200;-75
2021/06/27 07:28:40;;;;;;;5.57;2.72;;;;;;;28.42;48.89;101074.16;5083933;28;20205;-75
2021/06/27 07:31:12;;;;;;;4.15;3.30;;;;;;;28.80;47.42;101049.47;5083319;28;20318;-75
2021/06/27 07:33:42;;;;;;;4.47;2.80;;;;;;;29.00;47.33;101088.16;5080729;28;20698;-75
2021/06/27 07:36:10;;;;;;;4.72;3.38;;;;;;;29.12;47.18;101086.44;5080449;28;20652;-75
2021/06/27 07:38:38;;;;;;;5.38;3.10;;;;;;;29.14;46.26;101084.31;5084025;28;20718;-75
2021/06/27 07:41:06;;;;;;;4.55;3.45;;;;;;;28.95;46.43;101087.97;5086815;28;20204;-76
2021/06/27 07:43:36;;;;;;;3.95;2.80;;;;;;;28.95;46.58;101074.97;5081807;28;20196;-75
2021/06/27 07:46:04;;;;;;;4.60;3.13;;;;;;;28.79;46.69;101091.16;5081355;28;20197;-75
2021/06/27 07:48:32;;;;;;;3.95;3.13;;;;;;;29.26;46.23;101099.16;5080329;28;20276;-75
2021/06/27 07:51:03;;;;;;;4.82;3.25;;;;;;;29.06;46.50;101093.66;5081886;28;20635;-75
2021/06/27 07:53:31;;;;;;;5.45;3.42;;;;;;;29.47;45.85;101095.28;5085645;28;20192;-75
2021/06/27 07:56:04;;;;;;;5.45;3.60;;;;;;;29.36;45.34;101099.53;5084075;28;20690;-75
2021/06/27 07:58:52;;;;;;;3.92;3.00;;;;;;;29.38;45.15;101094.63;5083423;28;20250;-75
2021/06/27 08:01:22;;;;;;;3.40;3.10;;;;;;;29.09;46.18;101092.41;5080931;28;20204;-75
2021/06/27 08:03:52;;;;;;;3.50;2.90;;;;;;;29.61;45.64;101090.53;5083697;28;20205;-75
2021/06/27 08:06:21;;;;;;;3.13;2.55;;;;;;;29.66;45.03;101096.25;5083359;28;20427;-76
2021/06/27 08:08:52;;;;;;;4.25;2.80;;;;;;;29.40;45.28;101083.38;5082692;28;20242;-76
2021/06/27 08:11:21;;;;;;;4.03;3.22;;;;;;;28.76;47.12;101087.72;5083900;28;20188;-75
2021/06/27 08:13:49;;;;;;;5.20;2.88;;;;;;;28.91;46.88;101097.75;5086230;28;20193;-75
2021/06/27 08:16:17;;;;;;;4.32;2.90;;;;;;;28.08;48.70;101069.66;5086984;28;20242;-75
2021/06/27 08:18:45;;;;;;;4.35;3.20;;;;;;;28.47;48.18;101099.28;5086744;28;20627;-75
2021/06/27 08:21:13;;;;;;;3.67;3.10;;;;;;;28.75;47.14;101093.47;5086117;28;20207;-75
2021/06/27 08:23:43;;;;;;;4.10;3.03;;;;;;;28.83;47.11;101100.72;5081152;28;20201;-75
2021/06/27 08:26:11;;;;;;;4.93;2.92;;;;;;;29.29;45.90;101109.78;5089502;28;20318;-77
2021/06/27 08:28:39;;;;;;;4.70;3.10;;;;;;;29.59;45.74;101106.50;5088789;28;20243;-78
2021/06/27 08:31:07;;;;;;;5.10;2.60;;;;;;;29.12;45.32;101069.00;5088636;28;20195;-76
2021/06/27 08:33:36;;;;;;;3.92;3.08;;;;;;;29.65;45.33;101108.38;5088587;28;20192;-75
2021/06/27 08:36:04;;;;;;;3.53;2.78;;;;;;;29.48;46.09;101109.97;5089965;28;20196;-76
2021/06/27 08:38:32;;;;;;;6.65;2.80;;;;;;;29.74;44.54;101112.63;5086279;28;20718;-76
2021/06/27 08:41:02;;;;;;;6.15;2.80;;;;;;;30.05;44.59;101094.38;5081004;28;20695;-76
2021/06/27 08:43:32;;;;;;;3.97;2.90;;;;;;;29.84;44.41;101101.91;5088966;28;20204;-74
2021/06/27 08:46:05;;;;;;;4.32;2.70;;;;;;;29.86;44.64;101087.84;5089488;28;20643;-74
2021/06/27 08:48:37;;;;;;;4.20;2.83;;;;;;;30.26;44.10;101099.50;5089115;28;20193;-74
2021/06/27 08:51:06;;;;;;;4.93;2.95;;;;;;;30.29;43.75;101096.28;5084390;28;20208;-74
2021/06/27 08:53:34;;;;;;;4.25;3.08;;;;;;;30.32;43.39;101098.63;5080708;28;20188;-74
2021/06/27 08:56:08;;;;;;;3.30;3.00;;;;;;;30.62;43.19;101109.09;5086860;28;20703;-74
2021/06/27 08:58:39;;;;;;;3.40;3.00;;;;;;;30.89;42.43;101096.63;5089400;28;20216;-75
2021/06/27 09:01:11;;;;;;;3.13;2.83;;;;;;;30.65;43.02;101090.06;5087753;28;20222;-75
2021/06/27 09:03:45;;;;;;;3.08;2.75;;;;;;;30.82;43.31;101093.94;5081205;28;20192;-74
2021/06/27 09:06:23;;;;;;;3.33;2.90;;;;;;;30.38;42.85;101091.34;5085860;28;20200;-75
2021/06/27 09:09:10;;;;;;;4.85;3.00;;;;;;;30.78;43.06;101091.84;5080303;28;20473;-74
2021/06/27 09:11:41;;;;;;;3.92;3.33;;;;;;;30.78;43.06;101086.31;5083532;28;20207;-74
2021/06/27 09:14:27;;;;;;;7.57;3.45;;;;;;;30.91;41.64;101108.34;5089443;28;20199;-74
2021/06/27 09:17:14;;;;;;;5.10;3.35;;;;;;;30.37;43.52;101093.25;5088477;28;20196;-75
2021/06/27 09:20:01;;;;;;;3.47;3.17;;;;;;;30.40;42.93;101101.13;5088713;28;20216;-74
2021/06/27 09:22:31;;;;;;;5.68;3.20;;;;;;;29.85;45.06;101098.06;5081471;28;20667;-75
2021/06/27 09:25:15;;;;;;;3.95;3.05;;;;;;;29.72;45.58;101106.47;5089793;28;20211;-74
2021/06/27 09:27:45;;;;;;;3.38;2.85;;;;;;;30.20;44.44;101103.19;5083798;28;20563;-74
2021/06/27 09:30:16;;;;;;;7.80;2.70;;;;;;;30.45;44.00;101101.28;5088035;28;20556;-74
2021/06/27 09:32:52;;;;;;;3.40;3.03;;;;;;;30.52;43.17;101099.31;5088224;28;20196;-74
2021/06/27 09:35:40;;;;;;;3.85;2.80;;;;;;;30.73;43.75;101108.34;5086330;28;20314;-74
2021/06/27 09:38:22;;;;;;;4.20;2.60;;;;;;;30.74;43.66;101094.25;5075819;28;20221;-74
2021/06/27 09:40:53;;;;;;;3.80;2.60;;;;;;;30.59;43.98;101099.25;5087340;28;20189;-74
2021/06/27 09:43:25;;;;;;;13.50;3.20;;;;;;;30.36;43.75;101094.34;5076747;28;20201;-74
2021/06/27 09:45:56;;;;;;;4.35;2.97;;;;;;;30.28;44.36;101100.13;5086783;28;20197;-74
2021/06/27 09:48:25;;;;;;;5.45;3.10;;;;;;;30.47;43.60;101101.91;5087768;28;20662;-74
2021/06/27 09:50:54;;;;;;;4.78;3.22;;;;;;;30.45;43.42;101090.19;5089108;28;20197;-75
2021/06/27 09:53:33;;;;;;;3.60;3.30;;;;;;;30.18;44.22;101097.03;5079931;28;20200;-75
2021/06/27 09:56:03;;;;;;;5.15;3.80;;;;;;;30.00;43.92;101072.81;5078586;28;20246;-75
2021/06/27 09:58:33;;;;;;;3.70;3.40;;;;;;;30.48;44.08;101098.06;5079473;28;20217;-75
2021/06/27 10:01:01;;;;;;;4.30;3.20;;;;;;;30.49;43.91;101102.53;5089088;28;20201;-75
2021/06/27 10:03:41;;;;;;;8.70;3.13;;;;;;;30.49;43.53;101099.75;5087148;28;20200;-75
2021/06/27 10:06:10;;;;;;;5.13;2.92;;;;;;;30.43;43.46;101100.66;5087211;28;20503;-75
2021/06/27 10:08:40;;;;;;;4.90;2.92;;;;;;;30.72;43.60;101109.41;5087992;28;20193;-75
2021/06/27 10:11:12;;;;;;;4.72;3.25;;;;;;;31.02;42.89;101099.28;5088688;28;20204;-75
2021/06/27 10:13:42;;;;;;;3.72;3.13;;;;;;;31.30;42.38;101100.72;5087626;28;20207;-75
2021/06/27 10:16:17;;;;;;;4.25;3.10;;;;;;;31.06;42.08;101108.84;5086916;28;20579;-75
2021/06/27 10:18:45;;;;;;;3.38;3.08;;;;;;;30.25;43.46;101103.38;5086943;28;20733;-75
2021/06/27 10:21:14;;;;;;;7.22;2.70;;;;;;;31.07;42.57;101101.38;5088233;28;20200;-75
2021/06/27 10:23:43;;;;;;;3.03;2.70;;;;;;;30.94;42.87;101096.81;5086789;28;20203;-75
2021/06/27 10:26:11;;;;;;;3.95;3.10;;;;;;;30.90;42.11;101101.97;5086822;28;20219;-75
2021/06/27 10:28:40;;;;;;;4.28;3.15;;;;;;;30.67;43.10;101090.69;5083103;28;20263;-75
2021/06/27 10:31:10;;;;;;;2.88;2.63;;;;;;;30.86;42.62;101102.66;5077736;28;20696;-75
2021/06/27 10:33:39;;;;;;;5.18;2.80;;;;;;;30.35;43.73;101106.50;5085246;28;20565;-75
2021/06/27 10:36:09;;;;;;;3.65;3.10;;;;;;;30.25;43.82;101098.66;5083982;28;20192;-75
2021/06/27 10:38:41;;;;;;;4.22;3.08;;;;;;;30.12;44.38;101096.00;5081359;28;20224;-75
2021/06/27 10:41:09;;;;;;;4.75;3.00;;;;;;;30.02;44.83;101101.16;5079687;28;20717;-75
2021/06/27 10:44:00;;;;;;;4.25;3.40;;;;;;;29.58;45.10;101096.50;5086145;28;20204;-75
2021/06/27 10:46:43;;;;;;;3.20;2.72;;;;;;;29.91;45.25;101099.09;5084029;28;20193;-75
2021/06/27 10:50:09;;;;;;;3.55;3.17;;;;;;;29.95;44.71;101098.41;5095355;28;20205;-75
2021/06/27 10:53:00;;;;;;;4.07;3.38;;;;;;;30.44;44.15;101102.38;5085381;28;20682;-75
2021/06/27 10:55:32;;;;;;;3.72;3.15;;;;;;;30.62;43.62;101096.06;5085381;28;20196;-75
2021/06/27 10:58:04;;;;;;;2.90;2.60;;;;;;;30.68;42.42;101086.84;5082381;28;20196;-75
2021/06/27 11:01:03;;;;;;;2.90;2.70;;;;;;;30.88;42.54;101087.47;5101203;28;20205;-75
2021/06/27 11:03:35;;;;;;;5.57;3.30;;;;;;;30.20;44.41;101092.09;5074392;28;20216;-75
2021/06/27 11:06:05;;;;;;;3.70;3.28;;;;;;;29.83;44.87;101086.34;5086422;28;20284;-74
2021/06/27 11:08:39;;;;;;;4.15;2.80;;;;;;;29.97;45.37;101084.34;5081902;28;20203;-74
2021/06/27 11:11:11;;;;;;;4.75;3.10;;;;;;;30.15;44.70;101072.53;5080327;28;20227;-74
2021/06/27 11:13:40;;;;;;;3.20;2.85;;;;;;;30.35;44.44;101076.00;5080769;28;21495;-74
2021/06/27 11:16:21;;;;;;;3.47;2.90;;;;;;;30.57;42.87;101076.44;5079772;28;20717;-74
2021/06/27 11:18:52;;;;;;;3.30;3.00;;;;;;;30.59;44.06;101077.91;5080643;28;20238;-74
2021/06/27 11:21:33;;;;;;;3.70;3.08;;;;;;;31.01;42.54;101074.56;5080358;28;20211;-74
2021/06/27 11:24:08;;;;;;;3.45;3.05;;;;;;;30.98;42.67;101075.84;5081283;28;20224;-74
2021/06/27 11:26:58;;;;;;;6.75;3.15;;;;;;;30.43;42.84;101066.56;5080562;28;21803;-75
2021/06/27 11:29:46;;;;;;;3.65;3.33;;;;;;;30.35;43.81;101069.63;5080876;28;20404;-74
2021/06/27 11:32:50;;;;;;;3.63;3.30;;;;;;;30.40;44.64;101067.00;5095438;28;20730;-74
2021/06/27 11:35:39;;;;;;;3.65;3.28;;;;;;;30.90;43.93;101073.38;5080316;28;20208;-74
2021/06/27 11:38:09;;;;;;;3.80;3.13;;;;;;;31.03;42.60;101055.75;5079970;28;20672;-74
2021/06/27 11:40:49;;;;;;;3.50;3.20;;;;;;;30.96;43.21;101068.84;5079780;28;20593;-74